Time;durP1;ratioP1;P1;durP2;ratioP2;P2;SDS_P1;SDS_P2;PMS_P1;PMS_P2;Temp;Humidity;BMP_temperature;BMP_pressure;BME280_temperature;BME280_humidity;BME280_pressure;Samples;Min_cycle;Max_cycle;Signal;HPM_P1;HPM_P2
2023/09/14 00:01:35;;;;;;;;;;;19.00;94.40;;;;;;5091549;28;19915;-63
2023/09/14 00:04:01;;;;;;;;;;;19.10;94.70;;;;;;5086887;28;20360;-65
2023/09/14 00:06:28;;;;;;;;;;;19.30;94.40;;;;;;5078761;28;19912;-67
2023/09/14 00:08:55;;;;;;;;;;;19.50;94.30;;;;;;5089445;28;19920;-66
2023/09/14 00:11:21;;;;;;;;;;;19.60;94.10;;;;;;5074315;28;19973;-64
2023/09/14 00:13:48;;;;;;;;;;;19.70;93.60;;;;;;5077276;28;19969;-64
2023/09/14 00:16:15;;;;;;;;;;;19.70;92.30;;;;;;5088836;28;19912;-65
2023/09/14 00:18:41;;;;;;;;;;;19.80;92.40;;;;;;5078140;28;20077;-66
2023/09/14 00:21:08;;;;;;;;;;;19.90;92.40;;;;;;5084143;28;19920;-62
2023/09/14 00:23:35;;;;;;;;;;;20.10;91.90;;;;;;5093038;28;19987;-77
2023/09/14 00:26:01;;;;;;;;;;;20.20;91.70;;;;;;5080078;28;19919;-65
2023/09/14 00:28:28;;;;;;;;;;;20.30;91.90;;;;;;5092106;28;20428;-64
2023/09/14 00:30:56;;;;;;;;;;;20.40;92.00;;;;;;5091731;28;20384;-65
2023/09/14 00:33:23;;;;;;;;;;;20.50;91.80;;;;;;5091951;28;20018;-65
2023/09/14 00:35:49;;;;;;;;;;;20.60;92.10;;;;;;5089121;28;19920;-76
2023/09/14 00:38:16;;;;;;;;;;;20.70;91.20;;;;;;5089826;28;19944;-67
2023/09/14 00:40:43;;;;;;;;;;;20.90;90.50;;;;;;5092631;28;19919;-64
2023/09/14 00:43:09;;;;;;;;;;;21.00;90.40;;;;;;5093138;28;19927;-64
2023/09/14 00:45:36;;;;;;;;;;;21.10;90.00;;;;;;5089618;28;20441;-65
2023/09/14 00:48:03;;;;;;;;;;;21.30;88.80;;;;;;5084131;28;19967;-65
2023/09/14 00:50:31;;;;;;;;;;;21.40;88.50;;;;;;5092798;28;19912;-66
2023/09/14 00:53:06;;;;;;;;;;;21.50;88.00;;;;;;5092976;28;19928;-63
2023/09/14 00:55:59;;;;;;;;;;;21.70;88.00;;;;;;5092355;28;20058;-64
2023/09/14 00:58:25;;;;;;;;;;;21.80;87.90;;;;;;5083842;28;20277;-68
2023/09/14 01:00:52;;;;;;;;;;;22.10;87.70;;;;;;5073371;28;20007;-66
2023/09/14 01:03:19;;;;;;;;;;;22.20;86.30;;;;;;5074967;28;20384;-71
2023/09/14 01:05:48;;;;;;;;;;;22.30;86.40;;;;;;5084099;28;19912;-62
2023/09/14 01:08:16;;;;;;;;;;;22.40;85.60;;;;;;5084437;28;19995;-67
2023/09/14 01:10:42;;;;;;;;;;;22.60;86.90;;;;;;5091286;28;19917;-64
2023/09/14 01:13:28;;;;;;;;;;;22.70;84.10;;;;;;5092693;28;20011;-67
2023/09/14 01:15:57;;;;;;;;;;;22.90;84.40;;;;;;5084529;28;20269;-66
2023/09/14 01:18:30;;;;;;;;;;;23.10;82.70;;;;;;5092801;28;20098;-68
2023/09/14 01:21:03;;;;;;;;;;;23.30;80.70;;;;;;5091894;28;19935;-67
2023/09/14 01:23:43;;;;;;;;;;;23.40;81.00;;;;;;5092431;28;19915;-67
2023/09/14 01:26:10;;;;;;;;;;;23.60;81.10;;;;;;5091905;28;20049;-64
2023/09/14 01:28:36;;;;;;;;;;;23.90;79.50;;;;;;5090649;28;19909;-66
2023/09/14 01:31:03;;;;;;;;;;;24.00;78.00;;;;;;5090420;28;19912;-67
2023/09/14 01:33:31;;;;;;;;;;;24.20;79.30;;;;;;5089920;28;19928;-66
2023/09/14 01:36:03;;;;;;;;;;;24.40;79.00;;;;;;5077555;28;19916;-65
2023/09/14 01:38:31;;;;;;;;;;;24.60;77.70;;;;;;5089041;28;19923;-63
2023/09/14 01:40:58;;;;;;;;;;;24.80;77.00;;;;;;5086369;28;20287;-63
2023/09/14 01:43:25;;;;;;;;;;;24.90;77.90;;;;;;5085348;28;19912;-69
2023/09/14 01:45:52;;;;;;;;;;;25.10;76.80;;;;;;5071854;28;20002;-65
2023/09/14 01:48:19;;;;;;;;;;;25.20;75.50;;;;;;5077627;28;19920;-65
2023/09/14 01:50:46;;;;;;;;;;;25.40;75.00;;;;;;5084274;28;20365;-72
2023/09/14 01:53:13;;;;;;;;;;;25.50;74.20;;;;;;5088991;28;19920;-68
2023/09/14 01:55:40;;;;;;;;;;;25.50;74.20;;;;;;5078488;28;19916;-64
2023/09/14 01:58:06;;;;;;;;;;;25.60;75.50;;;;;;5093540;28;19908;-65
2023/09/14 02:00:33;;;;;;;;;;;25.90;74.90;;;;;;5090871;28;19912;-66
2023/09/14 02:03:00;;;;;;;;;;;26.10;73.50;;;;;;5091711;28;20297;-65
2023/09/14 02:05:26;;;;;;;;;;;26.10;72.10;;;;;;5075501;28;19912;-68
2023/09/14 02:07:53;;;;;;;;;;;26.30;71.50;;;;;;5071235;28;19913;-65
2023/09/14 02:10:21;;;;;;;;;;;26.40;71.50;;;;;;5093692;28;19916;-72
2023/09/14 02:12:48;;;;;;;;;;;26.70;73.90;;;;;;5095290;28;19935;-65
2023/09/14 02:15:16;;;;;;;;;;;26.90;71.80;;;;;;5092683;28;19919;-66
2023/09/14 02:17:42;;;;;;;;;;;27.30;72.80;;;;;;5078530;28;19912;-66
2023/09/14 02:20:09;;;;;;;;;;;27.30;69.10;;;;;;5095407;28;20284;-68
2023/09/14 02:22:36;;;;;;;;;;;27.30;70.60;;;;;;5094843;28;20321;-66
2023/09/14 02:25:03;;;;;;;;;;;27.50;70.20;;;;;;5091202;28;19962;-66
2023/09/14 02:27:29;;;;;;;;;;;27.60;70.00;;;;;;5094905;28;19923;-68
2023/09/14 02:29:56;;;;;;;;;;;27.80;68.10;;;;;;5093069;28;19972;-65
2023/09/14 02:32:22;;;;;;;;;;;27.80;67.50;;;;;;5087274;28;20020;-68
2023/09/14 02:34:49;;;;;;;;;;;27.90;67.80;;;;;;5086253;28;20373;-72
2023/09/14 02:37:16;;;;;;;;;;;28.20;66.40;;;;;;5079491;28;20384;-68
2023/09/14 02:39:42;;;;;;;;;;;28.80;68.50;;;;;;5095059;28;20378;-65
2023/09/14 02:42:09;;;;;;;;;;;29.60;67.20;;;;;;5083559;28;19910;-67
2023/09/14 02:44:37;;;;;;;;;;;30.10;64.00;;;;;;5093444;28;20506;-67
2023/09/14 02:47:04;;;;;;;;;;;30.80;62.90;;;;;;5115753;28;20319;-64
2023/09/14 02:49:30;;;;;;;;;;;31.70;61.50;;;;;;5093957;28;19944;-72
2023/09/14 02:51:57;;;;;;;;;;;32.80;59.50;;;;;;5080502;28;19912;-66
2023/09/14 02:54:23;;;;;;;;;;;34.10;58.30;;;;;;5082985;28;19927;-65
2023/09/14 02:56:50;;;;;;;;;;;34.80;59.70;;;;;;5074644;28;19912;-64
2023/09/14 02:59:18;;;;;;;;;;;35.50;57.10;;;;;;5090050;28;19919;-68
2023/09/14 03:01:45;;;;;;;;;;;36.10;55.40;;;;;;5091890;28;19912;-65
2023/09/14 03:04:13;;;;;;;;;;;36.60;56.50;;;;;;5087135;28;19908;-67
2023/09/14 03:06:40;;;;;;;;;;;37.20;54.90;;;;;;5092685;28;20361;-68
2023/09/14 03:09:07;;;;;;;;;;;37.60;55.40;;;;;;5085872;28;19913;-67
2023/09/14 03:11:33;;;;;;;;;;;37.50;53.20;;;;;;5074500;28;19970;-68
2023/09/14 03:14:00;;;;;;;;;;;37.60;55.20;;;;;;5091251;28;19925;-68
2023/09/14 03:16:26;;;;;;;;;;;37.90;52.70;;;;;;5094006;28;19935;-70
2023/09/14 03:18:53;;;;;;;;;;;38.50;52.10;;;;;;5088393;28;19920;-65
2023/09/14 03:21:23;;;;;;;;;;;38.40;52.30;;;;;;5074310;28;19913;-71
2023/09/14 03:23:50;;;;;;;;;;;38.70;52.30;;;;;;5074514;28;20254;-69
2023/09/14 03:26:17;;;;;;;;;;;38.90;51.20;;;;;;5074009;28;19909;-69
2023/09/14 03:28:44;;;;;;;;;;;38.20;50.80;;;;;;5088959;28;19912;-74
2023/09/14 03:31:11;;;;;;;;;;;38.00;52.20;;;;;;5094218;28;19915;-71
2023/09/14 03:33:37;;;;;;;;;;;37.50;51.50;;;;;;5092082;28;19916;-66
2023/09/14 03:36:05;;;;;;;;;;;37.70;52.00;;;;;;5074240;28;19999;-65
2023/09/14 03:38:31;;;;;;;;;;;38.20;51.50;;;;;;5088486;28;19920;-67
2023/09/14 03:40:58;;;;;;;;;;;37.50;51.00;;;;;;5094124;28;20050;-69
2023/09/14 03:43:24;;;;;;;;;;;37.80;51.70;;;;;;5094301;28;19908;-67
2023/09/14 03:45:51;;;;;;;;;;;38.00;52.40;;;;;;5083249;28;19916;-70
2023/09/14 03:48:18;;;;;;;;;;;38.60;52.80;;;;;;5092795;28;19927;-71
2023/09/14 03:50:44;;;;;;;;;;;38.70;52.60;;;;;;5093399;28;19919;-70
2023/09/14 03:53:11;;;;;;;;;;;39.30;52.00;;;;;;5091414;28;19939;-70
2023/09/14 03:55:37;;;;;;;;;;;39.10;51.30;;;;;;5092423;28;19912;-68
2023/09/14 03:58:04;;;;;;;;;;;39.30;51.90;;;;;;5093697;28;19915;-67
2023/09/14 04:00:31;;;;;;;;;;;39.10;52.60;;;;;;5093910;28;19908;-69
2023/09/14 04:02:57;;;;;;;;;;;39.50;51.90;;;;;;5094495;28;19912;-66
2023/09/14 04:05:24;;;;;;;;;;;39.60;51.80;;;;;;5093930;28;19919;-68
2023/09/14 04:07:51;;;;;;;;;;;39.30;51.10;;;;;;5092971;28;19973;-68
2023/09/14 04:10:18;;;;;;;;;;;39.20;51.70;;;;;;5083276;28;19912;-66
2023/09/14 04:12:44;;;;;;;;;;;39.60;51.50;;;;;;5076466;28;20346;-66
2023/09/14 04:15:11;;;;;;;;;;;40.20;51.20;;;;;;5076693;28;19948;-66
2023/09/14 04:17:38;;;;;;;;;;;40.00;50.60;;;;;;5084333;28;19915;-67
2023/09/14 04:20:09;;;;;;;;;;;40.00;51.40;;;;;;5091239;28;19908;-66
2023/09/14 04:22:36;;;;;;;;;;;40.00;50.20;;;;;;5086201;28;19912;-66
2023/09/14 04:25:03;;;;;;;;;;;40.20;50.80;;;;;;5079777;28;19908;-71
2023/09/14 04:27:30;;;;;;;;;;;40.50;51.40;;;;;;5073941;28;20018;-68
2023/09/14 04:29:57;;;;;;;;;;;40.90;50.00;;;;;;5086504;28;19912;-70
2023/09/14 04:32:23;;;;;;;;;;;40.40;49.30;;;;;;5092450;28;19942;-71
2023/09/14 04:34:51;;;;;;;;;;;40.30;49.90;;;;;;5093154;28;20350;-67
2023/09/14 04:37:17;;;;;;;;;;;40.30;49.60;;;;;;5093059;28;19915;-72
2023/09/14 04:39:45;;;;;;;;;;;40.40;49.90;;;;;;5092725;28;19939;-72
2023/09/14 04:42:16;;;;;;;;;;;40.30;50.20;;;;;;5093298;28;20305;-67
2023/09/14 04:44:49;;;;;;;;;;;40.30;49.80;;;;;;5087886;28;19908;-68
2023/09/14 04:47:19;;;;;;;;;;;40.60;49.40;;;;;;5084142;28;19920;-76
2023/09/14 04:49:45;;;;;;;;;;;40.70;50.30;;;;;;5083174;28;19912;-67
2023/09/14 04:52:12;;;;;;;;;;;40.50;49.60;;;;;;5072654;28;19913;-67
2023/09/14 04:54:39;;;;;;;;;;;40.70;49.20;;;;;;5076989;28;20276;-68
2023/09/14 04:57:06;;;;;;;;;;;40.00;50.30;;;;;;5092113;28;19916;-69
2023/09/14 04:59:32;;;;;;;;;;;40.00;51.10;;;;;;5081404;28;19958;-75
2023/09/14 05:01:59;;;;;;;;;;;40.30;50.00;;;;;;5091982;28;19962;-69
2023/09/14 05:04:25;;;;;;;;;;;40.20;50.00;;;;;;5083233;28;19909;-67
2023/09/14 05:06:52;;;;;;;;;;;40.10;50.40;;;;;;5091399;28;19919;-67
2023/09/14 05:09:19;;;;;;;;;;;40.10;50.00;;;;;;5093641;28;19936;-66
2023/09/14 05:11:46;;;;;;;;;;;39.80;50.20;;;;;;5093381;28;19916;-70
2023/09/14 05:14:12;;;;;;;;;;;40.20;50.60;;;;;;5105355;28;20011;-71
2023/09/14 05:16:39;;;;;;;;;;;40.10;50.20;;;;;;5092687;28;19943;-68
2023/09/14 05:19:06;;;;;;;;;;;39.40;49.70;;;;;;5092330;28;19927;-66
2023/09/14 05:21:32;;;;;;;;;;;39.20;49.40;;;;;;5091663;28;19915;-69
2023/09/14 05:23:59;;;;;;;;;;;39.30;50.60;;;;;;5091342;28;19912;-70
2023/09/14 05:26:25;;;;;;;;;;;39.50;50.00;;;;;;5091552;28;20392;-67
2023/09/14 05:28:52;;;;;;;;;;;38.80;49.90;;;;;;5090835;28;19909;-68
2023/09/14 05:31:19;;;;;;;;;;;38.20;50.00;;;;;;5092082;28;19915;-71
2023/09/14 05:33:45;;;;;;;;;;;38.00;50.40;;;;;;5084520;28;19920;-67
2023/09/14 05:36:12;;;;;;;;;;;38.20;50.90;;;;;;5091540;28;19914;-66
2023/09/14 05:38:39;;;;;;;;;;;38.10;50.40;;;;;;5087755;28;19912;-70
2023/09/14 05:41:05;;;;;;;;;;;38.50;50.30;;;;;;5083442;28;19920;-82
2023/09/14 05:43:32;;;;;;;;;;;38.60;49.40;;;;;;5087111;28;19908;-71
2023/09/14 05:46:01;;;;;;;;;;;38.40;50.40;;;;;;5089789;28;19916;-74
2023/09/14 05:48:28;;;;;;;;;;;37.40;50.80;;;;;;5089336;28;19919;-72
2023/09/14 05:50:55;;;;;;;;;;;37.30;50.70;;;;;;5086387;28;20392;-73
2023/09/14 05:53:21;;;;;;;;;;;36.40;50.40;;;;;;5082060;28;20003;-73
2023/09/14 05:55:48;;;;;;;;;;;36.20;51.40;;;;;;5088400;28;19908;-69
2023/09/14 05:58:14;;;;;;;;;;;35.90;52.30;;;;;;5089018;28;19908;-69
2023/09/14 06:00:41;;;;;;;;;;;35.10;51.70;;;;;;5090513;28;19908;-69
2023/09/14 06:03:08;;;;;;;;;;;35.10;52.60;;;;;;5090189;28;19908;-73
2023/09/14 06:05:34;;;;;;;;;;;34.80;52.60;;;;;;5090203;28;19912;-67
2023/09/14 06:08:01;;;;;;;;;;;34.80;53.00;;;;;;5090603;28;19961;-66
2023/09/14 06:10:27;;;;;;;;;;;34.70;52.70;;;;;;5087411;28;20338;-69
2023/09/14 06:12:54;;;;;;;;;;;34.30;53.30;;;;;;5088762;28;19916;-80
2023/09/14 06:15:21;;;;;;;;;;;34.50;54.20;;;;;;5086714;28;19916;-67
2023/09/14 06:17:47;;;;;;;;;;;34.90;52.90;;;;;;5086113;28;19921;-67
2023/09/14 06:20:14;;;;;;;;;;;35.10;52.40;;;;;;5087209;28;19964;-67
2023/09/14 06:22:41;;;;;;;;;;;34.80;52.60;;;;;;5090320;28;20428;-68
2023/09/14 06:25:08;;;;;;;;;;;34.90;52.90;;;;;;5089496;28;20313;-76
2023/09/14 06:27:35;;;;;;;;;;;35.30;51.90;;;;;;5088063;28;19920;-72
2023/09/14 06:30:02;;;;;;;;;;;35.10;52.10;;;;;;5085677;28;19999;-68
2023/09/14 06:32:28;;;;;;;;;;;35.70;52.20;;;;;;5089182;28;19924;-68
2023/09/14 06:34:55;;;;;;;;;;;34.90;52.80;;;;;;5090391;28;19908;-67
2023/09/14 06:37:22;;;;;;;;;;;35.20;53.30;;;;;;5090115;28;19919;-67
2023/09/14 06:39:49;;;;;;;;;;;35.00;53.10;;;;;;5084498;28;19909;-72
2023/09/14 06:42:15;;;;;;;;;;;34.70;52.90;;;;;;5089810;28;19920;-68
2023/09/14 06:44:42;;;;;;;;;;;34.50;54.00;;;;;;5089885;28;19916;-67
2023/09/14 06:47:08;;;;;;;;;;;33.90;53.90;;;;;;5089114;28;20280;-72
2023/09/14 06:49:35;;;;;;;;;;;32.90;54.40;;;;;;5091479;28;19907;-68
2023/09/14 06:52:03;;;;;;;;;;;31.90;56.10;;;;;;5101179;28;20292;-72
2023/09/14 06:54:29;;;;;;;;;;;30.60;57.10;;;;;;5078195;28;19919;-70
2023/09/14 06:56:56;;;;;;;;;;;29.60;59.20;;;;;;5073482;28;19938;-77
2023/09/14 06:59:22;;;;;;;;;;;28.50;60.40;;;;;;5081188;28;20344;-80
2023/09/14 07:01:50;;;;;;;;;;;27.50;61.20;;;;;;5093212;28;19996;-69
2023/09/14 07:04:16;;;;;;;;;;;26.50;62.70;;;;;;5085791;28;19912;-74
2023/09/14 07:06:43;;;;;;;;;;;26.00;64.30;;;;;;5088538;28;20456;-67
2023/09/14 07:09:10;;;;;;;;;;;25.40;65.50;;;;;;5077596;28;20433;-68
2023/09/14 07:11:36;;;;;;;;;;;24.90;66.60;;;;;;5086487;28;19920;-65
2023/09/14 07:14:03;;;;;;;;;;;24.50;67.70;;;;;;5081441;28;19928;-66
2023/09/14 07:16:30;;;;;;;;;;;24.30;68.50;;;;;;5083950;28;19920;-66
2023/09/14 07:18:56;;;;;;;;;;;24.10;68.70;;;;;;5088141;28;19923;-65
2023/09/14 07:21:23;;;;;;;;;;;23.80;69.30;;;;;;5086587;28;20327;-66
2023/09/14 07:23:49;;;;;;;;;;;23.60;69.50;;;;;;5089023;28;19912;-65
2023/09/14 07:26:17;;;;;;;;;;;23.50;70.70;;;;;;5093390;28;19981;-65
2023/09/14 07:28:44;;;;;;;;;;;23.20;70.90;;;;;;5090588;28;20354;-79
2023/09/14 07:31:11;;;;;;;;;;;22.80;70.80;;;;;;5087611;28;19962;-78
2023/09/14 07:33:37;;;;;;;;;;;22.70;71.20;;;;;;5091363;28;19916;-76
2023/09/14 07:36:04;;;;;;;;;;;22.50;71.10;;;;;;5080218;28;19927;-66
2023/09/14 07:38:31;;;;;;;;;;;22.30;71.70;;;;;;5090025;28;19908;-73
2023/09/14 07:40:57;;;;;;;;;;;22.10;72.00;;;;;;5080900;28;19966;-65
2023/09/14 07:43:25;;;;;;;;;;;21.90;72.20;;;;;;5093251;28;19940;-68
2023/09/14 07:45:54;;;;;;;;;;;21.70;72.30;;;;;;5092890;28;19918;-66
2023/09/14 07:48:21;;;;;;;;;;;21.60;72.80;;;;;;5092171;28;19928;-77
2023/09/14 07:50:48;;;;;;;;;;;21.40;73.40;;;;;;5086359;28;19951;-65
2023/09/14 07:53:14;;;;;;;;;;;21.30;74.00;;;;;;5089796;28;19920;-66
2023/09/14 07:55:41;;;;;;;;;;;21.20;74.50;;;;;;5091136;28;19912;-67
2023/09/14 07:58:08;;;;;;;;;;;21.10;74.60;;;;;;5093137;28;19915;-68
2023/09/14 08:00:35;;;;;;;;;;;21.00;74.90;;;;;;5077861;28;19966;-69
2023/09/14 08:03:02;;;;;;;;;;;21.00;75.40;;;;;;5083404;28;20279;-66
2023/09/14 08:05:29;;;;;;;;;;;20.90;75.70;;;;;;5091596;28;20280;-68
2023/09/14 08:07:55;;;;;;;;;;;20.80;76.50;;;;;;5087120;28;19958;-73
2023/09/14 08:10:22;;;;;;;;;;;20.70;76.40;;;;;;5072605;28;19913;-65
2023/09/14 08:12:48;;;;;;;;;;;20.70;76.50;;;;;;5098229;28;20291;-71
2023/09/14 08:15:15;;;;;;;;;;;20.60;76.30;;;;;;5091219;28;19919;-69
2023/09/14 08:17:43;;;;;;;;;;;20.50;77.20;;;;;;5081170;28;19922;-67
2023/09/14 08:20:10;;;;;;;;;;;20.50;77.60;;;;;;5084260;28;19920;-66
2023/09/14 08:22:37;;;;;;;;;;;20.40;78.10;;;;;;5088716;28;20383;-65
2023/09/14 08:25:06;;;;;;;;;;;20.30;78.50;;;;;;5083293;28;19916;-66
2023/09/14 08:27:33;;;;;;;;;;;20.20;78.60;;;;;;5076236;28;19967;-67
2023/09/14 08:29:59;;;;;;;;;;;20.10;78.90;;;;;;5076976;28;19922;-64
2023/09/14 08:32:27;;;;;;;;;;;20.00;78.70;;;;;;5086523;28;19919;-64
2023/09/14 08:34:56;;;;;;;;;;;20.00;79.40;;;;;;5085073;28;20265;-76
2023/09/14 08:37:24;;;;;;;;;;;19.90;79.60;;;;;;5091903;28;19916;-69
2023/09/14 08:39:52;;;;;;;;;;;19.80;79.70;;;;;;5087417;28;19944;-66
2023/09/14 08:42:20;;;;;;;;;;;19.80;79.60;;;;;;5092387;28;19919;-67
2023/09/14 08:44:47;;;;;;;;;;;19.70;80.00;;;;;;5083630;28;20007;-67
2023/09/14 08:47:14;;;;;;;;;;;19.70;80.00;;;;;;5085509;28;20284;-70
2023/09/14 08:49:43;;;;;;;;;;;19.70;80.30;;;;;;5079762;28;20315;-66
2023/09/14 08:52:10;;;;;;;;;;;19.60;80.30;;;;;;5081219;28;20035;-68
2023/09/14 08:54:37;;;;;;;;;;;19.50;80.30;;;;;;5090923;28;19919;-64
2023/09/14 08:57:07;;;;;;;;;;;19.50;80.30;;;;;;5092687;28;21157;-73
2023/09/14 08:59:35;;;;;;;;;;;19.50;80.90;;;;;;5087128;28;19919;-65
2023/09/14 09:02:02;;;;;;;;;;;19.40;82.00;;;;;;5092096;28;19912;-66
2023/09/14 09:04:29;;;;;;;;;;;19.40;81.40;;;;;;5089222;28;19912;-69
2023/09/14 09:06:55;;;;;;;;;;;19.30;81.60;;;;;;5091443;28;19912;-66
2023/09/14 09:09:24;;;;;;;;;;;19.30;82.20;;;;;;5082059;28;19949;-67
2023/09/14 09:11:50;;;;;;;;;;;19.30;83.10;;;;;;5081683;28;19916;-75
2023/09/14 09:14:17;;;;;;;;;;;19.20;83.00;;;;;;5089719;28;19924;-67
2023/09/14 09:16:44;;;;;;;;;;;19.10;83.50;;;;;;5091528;28;19959;-69
2023/09/14 09:19:10;;;;;;;;;;;19.10;83.90;;;;;;5086631;28;19916;-68
2023/09/14 09:21:37;;;;;;;;;;;19.00;84.60;;;;;;5091036;28;20002;-67
2023/09/14 09:24:05;;;;;;;;;;;19.10;85.30;;;;;;5089042;28;19912;-65
2023/09/14 09:26:34;;;;;;;;;;;19.00;85.60;;;;;;5082506;28;20022;-64
2023/09/14 09:29:00;;;;;;;;;;;19.00;86.10;;;;;;5086965;28;19959;-65
2023/09/14 09:31:43;;;;;;;;;;;18.90;86.20;;;;;;5091713;28;20424;-67
2023/09/14 09:34:10;;;;;;;;;;;18.90;86.80;;;;;;5084546;28;19975;-64
2023/09/14 09:36:38;;;;;;;;;;;18.90;87.20;;;;;;5088279;28;19913;-64
2023/09/14 09:39:07;;;;;;;;;;;18.90;87.20;;;;;;5084045;28;19912;-67
2023/09/14 09:41:37;;;;;;;;;;;18.90;87.60;;;;;;5086653;28;20425;-65
2023/09/14 09:44:07;;;;;;;;;;;18.90;87.50;;;;;;5080367;28;19912;-72
2023/09/14 09:46:37;;;;;;;;;;;18.80;87.70;;;;;;5087881;28;19939;-68
2023/09/14 09:49:05;;;;;;;;;;;18.80;87.90;;;;;;5076875;28;19913;-64
2023/09/14 09:51:34;;;;;;;;;;;18.80;88.10;;;;;;5082520;28;19940;-63
2023/09/14 09:54:02;;;;;;;;;;;18.80;87.60;;;;;;5089913;28;20007;-64
2023/09/14 09:56:29;;;;;;;;;;;18.70;87.60;;;;;;5085984;28;20360;-65
2023/09/14 09:58:56;;;;;;;;;;;18.80;87.40;;;;;;5075301;28;20419;-64
2023/09/14 10:01:24;;;;;;;;;;;18.70;87.80;;;;;;5083306;28;20344;-64
2023/09/14 10:03:54;;;;;;;;;;;18.80;87.40;;;;;;5088145;28;19932;-63
2023/09/14 10:06:21;;;;;;;;;;;18.70;87.10;;;;;;5075793;28;19916;-65
2023/09/14 10:08:54;;;;;;;;;;;18.70;87.10;;;;;;5074885;28;19966;-65
2023/09/14 10:11:22;;;;;;;;;;;18.70;87.40;;;;;;5092010;28;20002;-67
2023/09/14 10:13:49;;;;;;;;;;;18.70;87.10;;;;;;5092364;28;20357;-65
2023/09/14 10:16:18;;;;;;;;;;;18.60;87.50;;;;;;5090083;28;19966;-65
2023/09/14 10:18:45;;;;;;;;;;;18.60;87.30;;;;;;5091813;28;20280;-65
2023/09/14 10:21:13;;;;;;;;;;;18.50;86.90;;;;;;5090236;28;19944;-65
2023/09/14 10:23:39;;;;;;;;;;;18.50;86.30;;;;;;5092145;28;19953;-65
2023/09/14 10:26:06;;;;;;;;;;;18.40;86.00;;;;;;5078599;28;19935;-65
2023/09/14 10:28:33;;;;;;;;;;;18.40;86.20;;;;;;5080380;28;19912;-66
2023/09/14 10:31:01;;;;;;;;;;;18.40;86.10;;;;;;5090027;28;19919;-68
2023/09/14 10:33:27;;;;;;;;;;;18.40;86.40;;;;;;5088285;28;19920;-65
2023/09/14 10:35:55;;;;;;;;;;;18.40;86.10;;;;;;5075456;28;19913;-63
2023/09/14 10:38:24;;;;;;;;;;;18.30;85.90;;;;;;5076879;28;19936;-67
2023/09/14 10:40:53;;;;;;;;;;;18.30;86.20;;;;;;5092640;28;19920;-64
2023/09/14 10:43:20;;;;;;;;;;;18.30;86.40;;;;;;5075288;28;19966;-65
2023/09/14 10:45:48;;;;;;;;;;;18.20;86.20;;;;;;5077494;28;19912;-72
2023/09/14 10:48:20;;;;;;;;;;;18.20;85.80;;;;;;5093974;28;20011;-68
2023/09/14 10:50:49;;;;;;;;;;;18.20;85.60;;;;;;5090789;28;19916;-64
2023/09/14 10:53:16;;;;;;;;;;;18.20;85.30;;;;;;5076531;28;20568;-64
2023/09/14 10:55:42;;;;;;;;;;;18.20;85.10;;;;;;5075298;28;19916;-65
2023/09/14 10:58:15;;;;;;;;;;;18.10;85.00;;;;;;5091373;28;19947;-70
2023/09/14 11:00:42;;;;;;;;;;;18.10;85.00;;;;;;5077234;28;19999;-65
2023/09/14 11:03:09;;;;;;;;;;;18.10;85.10;;;;;;5088536;28;20011;-65
2023/09/14 11:05:49;;;;;;;;;;;18.10;84.50;;;;;;5075883;28;19920;-64
2023/09/14 11:08:20;;;;;;;;;;;18.10;84.50;;;;;;5090252;28;19919;-63
2023/09/14 11:10:55;;;;;;;;;;;18.10;84.50;;;;;;5073455;28;19948;-64
2023/09/14 11:13:22;;;;;;;;;;;18.00;84.20;;;;;;5089027;28;19966;-71
2023/09/14 11:16:05;;;;;;;;;;;17.90;84.00;;;;;;5095538;28;19953;-70
2023/09/14 11:18:36;;;;;;;;;;;17.90;84.30;;;;;;5086701;28;20501;-75
2023/09/14 11:21:03;;;;;;;;;;;17.90;83.90;;;;;;5076542;28;19913;-64
2023/09/14 11:23:35;;;;;;;;;;;17.80;83.80;;;;;;5080119;28;19915;-66
2023/09/14 11:26:02;;;;;;;;;;;17.80;84.00;;;;;;5085310;28;19912;-65
2023/09/14 11:28:30;;;;;;;;;;;17.80;83.90;;;;;;5081784;28;19913;-69
2023/09/14 11:30:57;;;;;;;;;;;17.80;84.00;;;;;;5075022;28;19917;-65
2023/09/14 11:33:24;;;;;;;;;;;17.90;84.10;;;;;;5083025;28;19993;-64
2023/09/14 11:35:52;;;;;;;;;;;17.80;84.30;;;;;;5074666;28;19913;-64
2023/09/14 11:38:19;;;;;;;;;;;17.80;84.40;;;;;;5090993;28;19965;-64
2023/09/14 11:40:46;;;;;;;;;;;17.80;84.20;;;;;;5094212;28;19930;-64
2023/09/14 11:43:47;;;;;;;;;;;17.80;84.10;;;;;;5093749;28;19947;-64
2023/09/14 11:46:07;;;;;;;;;;;17.80;84.50;;;;;;5094180;28;20372;-65
2023/09/14 11:48:35;;;;;;;;;;;17.80;84.00;;;;;;5073563;28;19925;-64
2023/09/14 11:51:02;;;;;;;;;;;17.80;84.40;;;;;;5074560;28;19913;-64
2023/09/14 11:53:32;;;;;;;;;;;17.70;84.20;;;;;;5074299;28;20384;-63
2023/09/14 11:55:59;;;;;;;;;;;17.70;82.20;;;;;;5074208;28;19909;-63
2023/09/14 11:58:25;;;;;;;;;;;17.70;81.30;;;;;;5086851;28;20282;-68
2023/09/14 12:00:54;;;;;;;;;;;17.80;81.20;;;;;;5074657;28;20464;-66
2023/09/14 12:03:21;;;;;;;;;;;17.80;80.60;;;;;;5074139;28;19919;-65
2023/09/14 12:05:48;;;;;;;;;;;17.80;80.40;;;;;;5088747;28;19912;-69
2023/09/14 12:08:16;;;;;;;;;;;17.70;79.90;;;;;;5093341;28;19908;-66
2023/09/14 12:10:44;;;;;;;;;;;17.70;80.50;;;;;;5094540;28;19908;-71
2023/09/14 12:13:11;;;;;;;;;;;17.70;81.60;;;;;;5092789;28;19916;-66
2023/09/14 12:15:38;;;;;;;;;;;17.60;82.40;;;;;;5077400;28;19919;-65
2023/09/14 12:18:05;;;;;;;;;;;17.60;83.00;;;;;;5073736;28;20007;-76
2023/09/14 12:20:33;;;;;;;;;;;17.50;83.60;;;;;;5074329;28;19956;-65
2023/09/14 12:23:01;;;;;;;;;;;17.50;84.10;;;;;;5072172;28;20370;-61
2023/09/14 12:25:27;;;;;;;;;;;17.40;84.40;;;;;;5072045;28;20458;-64
2023/09/14 12:27:54;;;;;;;;;;;17.30;85.50;;;;;;5071058;28;20361;-64
2023/09/14 12:30:21;;;;;;;;;;;17.30;85.30;;;;;;5071583;28;20016;-64
2023/09/14 12:32:48;;;;;;;;;;;17.30;85.50;;;;;;5071787;28;19917;-67
2023/09/14 12:35:16;;;;;;;;;;;17.20;85.80;;;;;;5072845;28;19912;-69
2023/09/14 12:37:43;;;;;;;;;;;17.20;86.10;;;;;;5073167;28;20437;-66
2023/09/14 12:40:12;;;;;;;;;;;17.10;86.10;;;;;;5073643;28;19959;-65
2023/09/14 12:42:42;;;;;;;;;;;17.10;86.20;;;;;;5073767;28;19956;-64
2023/09/14 12:45:11;;;;;;;;;;;17.00;86.80;;;;;;5073389;28;19999;-61
2023/09/14 12:47:38;;;;;;;;;;;17.00;87.30;;;;;;5082675;28;20330;-64
2023/09/14 12:50:06;;;;;;;;;;;16.90;87.70;;;;;;5093807;28;20536;-64
2023/09/14 12:52:34;;;;;;;;;;;16.90;88.00;;;;;;5087253;28;19927;-66
2023/09/14 12:55:06;;;;;;;;;;;16.80;88.40;;;;;;5072477;28;19965;-66
2023/09/14 12:57:36;;;;;;;;;;;16.80;88.80;;;;;;5073409;28;19908;-64
2023/09/14 13:00:14;;;;;;;;;;;16.70;89.10;;;;;;5073319;28;20380;-65
2023/09/14 13:02:45;;;;;;;;;;;16.70;89.60;;;;;;5073851;28;20304;-64
2023/09/14 13:05:13;;;;;;;;;;;16.70;89.70;;;;;;5073436;28;20004;-65
2023/09/14 13:07:49;;;;;;;;;;;16.70;89.50;;;;;;5073662;28;20350;-64
2023/09/14 13:10:20;;;;;;;;;;;16.70;90.00;;;;;;5073431;28;19908;-64
2023/09/14 13:13:06;;;;;;;;;;;16.60;90.00;;;;;;5073205;28;19921;-65
2023/09/14 13:15:34;;;;;;;;;;;16.60;90.20;;;;;;5073064;28;19995;-66
2023/09/14 13:18:04;;;;;;;;;;;16.50;90.40;;;;;;5083648;28;19908;-63
2023/09/14 13:20:32;;;;;;;;;;;16.40;90.90;;;;;;5093260;28;19919;-62
2023/09/14 13:23:04;;;;;;;;;;;16.40;91.10;;;;;;5093326;28;19915;-65
2023/09/14 13:25:32;;;;;;;;;;;16.30;91.00;;;;;;5076170;28;19912;-64
2023/09/14 13:27:59;;;;;;;;;;;16.30;91.20;;;;;;5073051;28;19915;-64
2023/09/14 13:30:26;;;;;;;;;;;16.20;91.40;;;;;;5073230;28;19916;-64
2023/09/14 13:32:56;;;;;;;;;;;16.20;91.60;;;;;;5073009;28;19917;-66
2023/09/14 13:35:23;;;;;;;;;;;16.20;91.50;;;;;;5072963;28;19958;-64
2023/09/14 13:37:54;;;;;;;;;;;16.20;91.80;;;;;;5072848;28;19912;-63
2023/09/14 13:40:21;;;;;;;;;;;16.10;91.80;;;;;;5073089;28;19919;-64
2023/09/14 13:42:49;;;;;;;;;;;16.10;92.00;;;;;;5073044;28;19944;-64
2023/09/14 13:45:16;;;;;;;;;;;16.10;92.30;;;;;;5072941;28;19916;-63
2023/09/14 13:47:44;;;;;;;;;;;16.00;92.30;;;;;;5080831;28;19926;-63
2023/09/14 13:50:10;;;;;;;;;;;16.10;92.30;;;;;;5093032;28;19913;-64
2023/09/14 13:52:37;;;;;;;;;;;16.00;92.30;;;;;;5092590;28;19959;-62
2023/09/14 13:55:05;;;;;;;;;;;16.00;92.50;;;;;;5092931;28;19971;-64
2023/09/14 13:57:33;;;;;;;;;;;16.00;92.60;;;;;;5092811;28;19948;-63
2023/09/14 14:00:00;;;;;;;;;;;15.90;92.70;;;;;;5091694;28;20276;-68
2023/09/14 14:02:27;;;;;;;;;;;15.80;93.00;;;;;;5092953;28;19908;-64
2023/09/14 14:04:54;;;;;;;;;;;15.80;93.20;;;;;;5082864;28;19912;-64
2023/09/14 14:07:21;;;;;;;;;;;15.80;93.40;;;;;;5072055;28;19982;-64
2023/09/14 14:09:47;;;;;;;;;;;15.70;93.60;;;;;;5072616;28;19908;-64
2023/09/14 14:12:14;;;;;;;;;;;15.70;93.60;;;;;;5072920;28;19915;-63
2023/09/14 14:14:41;;;;;;;;;;;15.70;93.80;;;;;;5072771;28;20270;-63
2023/09/14 14:17:07;;;;;;;;;;;15.70;93.90;;;;;;5072555;28;20283;-63
2023/09/14 14:19:34;;;;;;;;;;;15.60;93.90;;;;;;5072390;28;19915;-65